createdAt,value
2022-11-26T00:00:03.232Z,97.99
2022-11-26T00:05:02.667Z,98.15
2022-11-26T00:10:02.496Z,98.31
2022-11-26T00:15:03.518Z,97.99
2022-11-26T00:20:03.487Z,97.74
2022-11-26T00:25:02.910Z,97.96
2022-11-26T00:30:02.515Z,98.01
2022-11-26T00:35:02.578Z,98.15
2022-11-26T00:40:02.615Z,97.81
2022-11-26T00:45:03.349Z,97.79
2022-11-26T00:50:03.133Z,98.08
2022-11-26T00:55:04.111Z,97.86
2022-11-26T01:00:02.301Z,98.55
2022-11-26T01:05:03.365Z,98.5
2022-11-26T01:10:03.039Z,98.53
2022-11-26T01:15:02.942Z,98.79
2022-11-26T01:20:02.427Z,98.89
2022-11-26T01:25:03.519Z,98.82
2022-11-26T01:30:06.392Z,99.08
2022-11-26T01:35:02.816Z,99.24
2022-11-26T01:40:03.043Z,99.15
2022-11-26T01:45:02.738Z,99.21
2022-11-26T01:50:03.093Z,99.41
2022-11-26T01:55:04.180Z,99.5
2022-11-26T02:00:02.820Z,99.74
2022-11-26T02:05:02.249Z,99.71
2022-11-26T02:10:03.026Z,99.72
2022-11-26T02:15:02.895Z,99.97
2022-11-26T02:20:02.510Z,99.79
2022-11-26T02:25:03.258Z,100
2022-11-26T02:30:02.791Z,100
2022-11-26T02:35:02.455Z,100
2022-11-26T02:40:02.818Z,100
2022-11-26T02:45:03.041Z,100
2022-11-26T02:50:03.415Z,100
2022-11-26T02:55:04.058Z,99.85
2022-11-26T03:00:03.474Z,100
2022-11-26T03:05:02.960Z,100
2022-11-26T03:10:02.887Z,100
2022-11-26T03:15:03.933Z,100
2022-11-26T03:20:02.813Z,100
2022-11-26T03:25:02.239Z,100
2022-11-26T03:30:03.411Z,100
2022-11-26T03:35:03.112Z,100
2022-11-26T03:40:02.536Z,100
2022-11-26T03:45:03.137Z,100
2022-11-26T03:50:02.513Z,100
2022-11-26T03:55:03.546Z,100
2022-11-26T04:00:03.277Z,100
2022-11-26T04:05:03.260Z,100
2022-11-26T04:10:02.919Z,100
2022-11-26T04:15:02.536Z,100
2022-11-26T04:20:03.048Z,100
2022-11-26T04:25:02.978Z,100
2022-11-26T04:30:03.186Z,100
2022-11-26T04:35:02.885Z,100
2022-11-26T04:40:02.837Z,100
2022-11-26T04:45:02.385Z,100
2022-11-26T04:50:03.288Z,100
2022-11-26T04:55:04.235Z,100
2022-11-26T05:00:02.656Z,100
2022-11-26T05:05:03.388Z,100
2022-11-26T05:10:03.013Z,100
2022-11-26T05:15:03.017Z,100
2022-11-26T05:20:02.645Z,100
2022-11-26T05:25:02.778Z,99.78
2022-11-26T05:30:02.557Z,99.66
2022-11-26T05:35:02.999Z,98.96
2022-11-26T05:40:02.901Z,99.29
2022-11-26T05:45:02.636Z,99.09
2022-11-26T05:50:03.034Z,99.26
2022-11-26T05:55:04.335Z,99.16
2022-11-26T06:00:02.624Z,99.3
2022-11-26T06:05:03.025Z,99.34
2022-11-26T06:10:02.648Z,99.27
2022-11-26T06:15:03.431Z,99.09
2022-11-26T06:20:02.593Z,99.25
2022-11-26T06:25:03.018Z,99.1
2022-11-26T06:30:03.060Z,99.16
2022-11-26T06:35:02.799Z,99.03
2022-11-26T06:40:02.603Z,98.57
2022-11-26T06:45:03.067Z,98.73
2022-11-26T06:50:11.194Z,98.87
2022-11-26T06:55:04.110Z,99.06
2022-11-26T07:00:02.464Z,99.08
2022-11-26T07:05:02.718Z,98.89
2022-11-26T07:10:02.508Z,98.91
2022-11-26T07:15:03.012Z,98.56
2022-11-26T07:20:02.808Z,98.69
2022-11-26T07:25:02.805Z,98.28
2022-11-26T07:30:02.715Z,98.14
2022-11-26T07:35:02.857Z,98.38
2022-11-26T07:40:03.326Z,98.22
2022-11-26T07:45:03.089Z,97.76
2022-11-26T07:50:02.570Z,96.33
2022-11-26T07:55:13.196Z,95.71
2022-11-26T08:00:02.710Z,94.28
2022-11-26T08:05:02.875Z,93.92
2022-11-26T08:10:02.271Z,94.96
2022-11-26T08:15:03.272Z,95.07
2022-11-26T08:20:02.803Z,95.99
2022-11-26T08:25:03.374Z,97.46
2022-11-26T08:30:03.544Z,97.99
2022-11-26T08:35:03.020Z,97.36
2022-11-26T08:40:02.419Z,97.06
2022-11-26T08:45:03.448Z,97.42
2022-11-26T08:50:03.210Z,96.85
2022-11-26T08:55:04.339Z,96.27
2022-11-26T09:00:02.613Z,96.46
2022-11-26T09:05:03.299Z,94.95
2022-11-26T09:10:02.521Z,94.59
2022-11-26T09:15:03.196Z,93.6
2022-11-26T09:20:03.429Z,94.4
2022-11-26T09:25:02.765Z,94.41
2022-11-26T09:30:02.416Z,94
2022-11-26T09:35:02.720Z,94.18
2022-11-26T09:40:02.781Z,94.62
2022-11-26T09:45:03.403Z,94.46
2022-11-26T09:50:02.653Z,94.67
2022-11-26T09:55:04.026Z,94.58
2022-11-26T10:00:03.155Z,94.51
2022-11-26T10:05:02.325Z,94.53
2022-11-26T10:10:03.250Z,93.51
2022-11-26T10:15:03.581Z,92.9
2022-11-26T10:20:03.282Z,93.31
2022-11-26T10:25:02.661Z,92.89
2022-11-26T10:30:03.539Z,93
2022-11-26T10:35:03.135Z,93
2022-11-26T10:40:07.861Z,92.72
2022-11-26T10:55:04.149Z,93.31
2022-11-26T11:00:03.039Z,93.26
2022-11-26T11:05:02.658Z,92.96
2022-11-26T11:10:02.796Z,93.1
2022-11-26T11:15:03.593Z,93.11
2022-11-26T11:20:02.923Z,92.58
2022-11-26T11:25:02.929Z,92.35
2022-11-26T11:30:02.681Z,91.95
2022-11-26T11:35:02.697Z,91.91
2022-11-26T11:40:03.339Z,89.11
2022-11-26T11:45:02.503Z,88.87
2022-11-26T11:50:02.859Z,89.78
2022-11-26T11:55:03.658Z,88.76
2022-11-26T12:00:02.642Z,89.88
2022-11-26T12:05:03.003Z,89.92
2022-11-26T12:10:02.774Z,91.31
2022-11-26T12:15:03.104Z,90.36
2022-11-26T12:20:03.452Z,91.3
2022-11-26T12:25:02.532Z,90.74
2022-11-26T12:30:02.948Z,90.92
2022-11-26T12:35:02.278Z,90.55
2022-11-26T12:40:02.922Z,90.93
2022-11-26T12:45:03.818Z,92.16
2022-11-26T12:50:02.693Z,90.35
2022-11-26T12:55:04.148Z,89.94
2022-11-26T13:00:03.509Z,89.95
2022-11-26T13:05:02.760Z,89.58
2022-11-26T13:10:03.298Z,88.9
2022-11-26T13:15:02.583Z,88.53
2022-11-26T13:20:02.976Z,86.21
2022-11-26T13:25:03.345Z,85.31
2022-11-26T13:30:02.488Z,87.38
2022-11-26T13:35:03.169Z,88.7
2022-11-26T13:40:03.479Z,89.6
2022-11-26T13:45:02.746Z,90.2
2022-11-26T13:50:03.108Z,89.5
2022-11-26T13:55:04.260Z,89.91
2022-11-26T14:00:03.185Z,89.71
2022-11-26T14:05:02.515Z,89.94
2022-11-26T14:10:02.949Z,90.37
2022-11-26T14:15:02.989Z,90.3
2022-11-26T14:20:02.432Z,90.14
2022-11-26T14:25:03.179Z,92
2022-11-26T14:30:03.447Z,92.79
2022-11-26T14:35:02.921Z,92.89
2022-11-26T14:40:02.962Z,93.11
2022-11-26T14:45:02.417Z,91.7
2022-11-26T14:50:03.014Z,91.97
2022-11-26T14:55:04.758Z,92.74
2022-11-26T15:00:02.792Z,93.14
2022-11-26T15:05:02.877Z,93.79
2022-11-26T15:10:02.609Z,94.29
2022-11-26T15:15:02.888Z,94.74
2022-11-26T15:20:03.117Z,94.51
2022-11-26T15:25:02.708Z,96.03
2022-11-26T15:30:03.331Z,95.05
2022-11-26T15:35:03.197Z,95.86
2022-11-26T15:40:02.850Z,97.15
2022-11-26T15:45:03.251Z,97.18
2022-11-26T15:50:02.281Z,97.15
2022-11-26T15:55:13.698Z,97.53
2022-11-26T16:00:03.403Z,96.79
2022-11-26T16:05:02.569Z,96.67
2022-11-26T16:10:03.086Z,98.28
2022-11-26T16:15:03.502Z,98.32
2022-11-26T16:20:02.576Z,98.87
2022-11-26T16:25:03.265Z,99.8
2022-11-26T16:30:02.663Z,99.5
2022-11-26T16:35:46.620Z,99.69
2022-11-26T16:40:03.053Z,100
2022-11-26T16:50:03.282Z,100
2022-11-26T16:55:04.500Z,100
2022-11-26T17:00:02.859Z,99.8
2022-11-26T17:05:02.936Z,99.39
2022-11-26T17:10:02.642Z,100
2022-11-26T17:15:03.103Z,99.9
2022-11-26T17:20:03.229Z,100
2022-11-26T17:25:02.964Z,100
2022-11-26T17:30:03.556Z,100
2022-11-26T17:35:02.257Z,100
2022-11-26T17:40:03.297Z,100
2022-11-26T17:45:03.249Z,100
2022-11-26T17:50:02.721Z,100
2022-11-26T17:55:04.090Z,100
2022-11-26T18:00:02.305Z,100
2022-11-26T18:05:02.691Z,100
2022-11-26T18:10:03.347Z,100
2022-11-26T18:15:02.762Z,100
2022-11-26T18:20:03.137Z,100
2022-11-26T18:25:02.496Z,100
2022-11-26T18:30:02.721Z,100
2022-11-26T18:35:03.284Z,100
2022-11-26T18:40:02.428Z,100
2022-11-26T18:45:03.208Z,100
2022-11-26T18:50:03.432Z,100
2022-11-26T18:55:04.094Z,100
2022-11-26T19:00:03.207Z,100
2022-11-26T19:05:02.390Z,100
2022-11-26T19:10:02.847Z,100
2022-11-26T19:15:02.865Z,100
2022-11-26T19:20:02.868Z,100
2022-11-26T19:25:02.283Z,100
2022-11-26T19:30:03.292Z,100
2022-11-26T19:35:06.608Z,100
2022-11-26T19:40:03.351Z,100
2022-11-26T19:45:02.830Z,100
2022-11-26T19:50:02.717Z,100
2022-11-26T19:55:09.171Z,100
2022-11-26T20:00:02.756Z,100
2022-11-26T20:05:02.651Z,100
2022-11-26T20:10:03.092Z,100
2022-11-26T20:15:02.832Z,100
2022-11-26T20:20:03.033Z,100
2022-11-26T20:25:02.713Z,100
2022-11-26T20:30:03.420Z,100
2022-11-26T20:35:03.030Z,100
2022-11-26T20:40:02.883Z,100
2022-11-26T20:45:02.781Z,100
2022-11-26T20:50:02.464Z,100
2022-11-26T20:55:04.719Z,100
2022-11-26T21:00:02.784Z,100
2022-11-26T21:05:02.711Z,100
2022-11-26T21:10:02.684Z,100
2022-11-26T21:15:03.144Z,100
2022-11-26T21:20:03.129Z,100
2022-11-26T21:25:02.809Z,100
2022-11-26T21:30:02.788Z,100
2022-11-26T21:35:02.769Z,100
2022-11-26T21:40:03.234Z,100
2022-11-26T21:45:03.022Z,100
2022-11-26T21:50:03.166Z,100
2022-11-26T21:55:04.369Z,100
2022-11-26T22:00:03.276Z,100
2022-11-26T22:05:02.858Z,100
2022-11-26T22:10:03.229Z,100
2022-11-26T22:15:03.255Z,100
2022-11-26T22:20:03.217Z,100
2022-11-26T22:25:02.914Z,100
2022-11-26T22:30:02.383Z,100
2022-11-26T22:35:02.605Z,100
2022-11-26T22:40:03.324Z,100
2022-11-26T22:45:03.100Z,100
2022-11-26T22:50:02.698Z,100
2022-11-26T22:55:04.129Z,100
2022-11-26T23:00:02.538Z,100
2022-11-26T23:05:02.515Z,100
2022-11-26T23:10:02.255Z,100
2022-11-26T23:15:03.401Z,100
2022-11-26T23:20:03.223Z,100
2022-11-26T23:25:03.033Z,100
2022-11-26T23:30:02.680Z,100
2022-11-26T23:35:02.283Z,100
2022-11-26T23:40:03.279Z,100
2022-11-26T23:45:03.037Z,100
2022-11-26T23:50:03.036Z,100
2022-11-26T23:55:03.737Z,100
